createdAt,value
2023-03-22T00:02:59.036Z,55.57
2023-03-22T00:06:01.108Z,55.62
2023-03-22T00:09:04.761Z,55.42
2023-03-22T00:12:07.187Z,55.44
2023-03-22T00:15:11.251Z,55.47
2023-03-22T00:18:13.117Z,55.41
2023-03-22T00:21:16.930Z,55.75
2023-03-22T00:24:18.804Z,55.77
2023-03-22T00:27:21.418Z,55.85
2023-03-22T00:30:23.540Z,55.76
2023-03-22T00:33:32.170Z,55.85
2023-03-22T00:36:34.376Z,55.99
2023-03-22T00:39:36.570Z,55.95
2023-03-22T00:42:40.475Z,55.93
2023-03-22T00:45:43.532Z,55.15
2023-03-22T00:48:46.053Z,56.32
2023-03-22T00:51:48.637Z,56.28
2023-03-22T00:54:51.614Z,56.33
2023-03-22T00:57:54.511Z,56.54
2023-03-22T01:00:56.528Z,55.83
2023-03-22T01:03:58.896Z,56.22
2023-03-22T01:07:03.816Z,56.89
2023-03-22T01:10:06.874Z,56.59
2023-03-22T01:13:11.511Z,56.82
2023-03-22T01:16:13.911Z,56.76
2023-03-22T01:19:16.007Z,56.79
2023-03-22T01:22:18.989Z,56.62
2023-03-22T01:25:21.121Z,56.99
2023-03-22T01:28:25.853Z,56.82
2023-03-22T01:31:29.444Z,56.88
2023-03-22T01:34:32.181Z,56.80
2023-03-22T01:37:36.131Z,56.48
2023-03-22T01:40:39.022Z,57.00
2023-03-22T01:43:42.189Z,56.53
2023-03-22T01:46:47.483Z,57.40
2023-03-22T01:49:49.749Z,56.91
2023-03-22T01:52:53.736Z,57.57
2023-03-22T01:56:01.680Z,57.23
2023-03-22T01:59:08.989Z,57.85
2023-03-22T02:02:31.242Z,57.32
2023-03-22T02:05:48.702Z,57.55
2023-03-22T02:08:53.030Z,57.51
2023-03-22T02:12:14.901Z,57.74
2023-03-22T02:15:33.470Z,57.80
2023-03-22T02:18:52.029Z,57.83
2023-03-22T02:22:06.703Z,57.78
2023-03-22T02:25:39.907Z,57.75
2023-03-22T02:28:51.291Z,57.17
2023-03-22T02:32:12.312Z,57.72
2023-03-22T02:35:36.588Z,57.62
2023-03-22T02:39:00.555Z,57.16
2023-03-22T02:42:29.002Z,57.48
2023-03-22T02:45:39.628Z,57.46
2023-03-22T02:48:50.776Z,57.01
2023-03-22T02:52:19.400Z,57.67
2023-03-22T02:55:31.863Z,57.34
2023-03-22T02:58:40.225Z,57.80
2023-03-22T03:01:51.412Z,57.81
2023-03-22T03:04:55.411Z,57.66
2023-03-22T03:08:02.556Z,57.58
2023-03-22T03:11:07.122Z,56.94
2023-03-22T03:14:23.947Z,56.68
2023-03-22T03:17:33.690Z,58.53
2023-03-22T03:20:49.516Z,58.36
2023-03-22T03:24:06.150Z,58.58
2023-03-22T03:27:39.185Z,58.58
2023-03-22T03:30:55.050Z,58.98
2023-03-22T03:34:04.041Z,58.60
2023-03-22T03:37:11.734Z,58.49
2023-03-22T03:40:28.612Z,58.52
2023-03-22T03:43:32.677Z,58.50
2023-03-22T03:46:34.948Z,58.75
2023-03-22T03:49:37.264Z,58.36
2023-03-22T03:52:40.492Z,58.04
2023-03-22T03:55:42.789Z,57.99
2023-03-22T03:58:44.864Z,58.65
2023-03-22T04:01:50.534Z,59.13
2023-03-22T04:04:57.175Z,58.60
2023-03-22T04:07:59.546Z,58.48
2023-03-22T04:11:01.753Z,58.65
2023-03-22T04:14:05.466Z,58.45
2023-03-22T04:17:09.448Z,58.71
2023-03-22T04:20:13.444Z,58.06
2023-03-22T04:23:16.283Z,58.20
2023-03-22T04:26:22.844Z,58.18
2023-03-22T04:29:38.267Z,58.08
2023-03-22T04:33:01.398Z,58.58
2023-03-22T04:36:19.931Z,58.82
2023-03-22T04:39:44.958Z,58.78
2023-03-22T04:43:05.385Z,58.76
2023-03-22T04:46:26.666Z,58.35
2023-03-22T04:49:36.449Z,58.42
2023-03-22T04:52:39.000Z,58.50
2023-03-22T04:55:45.561Z,58.69
2023-03-22T04:58:48.412Z,58.44
2023-03-22T05:01:51.605Z,59.04
2023-03-22T05:04:57.912Z,58.58
2023-03-22T05:08:10.367Z,58.53
2023-03-22T05:11:16.973Z,58.13
2023-03-22T05:14:27.778Z,58.78
2023-03-22T05:17:30.689Z,58.52
2023-03-22T05:20:36.653Z,58.73
2023-03-22T05:23:46.285Z,58.98
2023-03-22T05:26:53.693Z,59.19
2023-03-22T05:29:58.683Z,59.06
2023-03-22T05:33:11.326Z,59.19
2023-03-22T05:36:21.380Z,59.50
2023-03-22T05:39:42.648Z,59.43
2023-03-22T05:42:45.818Z,59.58
2023-03-22T05:46:00.377Z,59.32
2023-03-22T05:49:21.952Z,59.30
2023-03-22T05:52:25.170Z,59.64
2023-03-22T05:55:47.789Z,59.30
2023-03-22T05:58:50.950Z,59.50
2023-03-22T06:01:55.500Z,59.69
2023-03-22T06:04:59.090Z,59.29
2023-03-22T06:08:01.249Z,58.95
2023-03-22T06:11:03.921Z,59.03
2023-03-22T06:14:06.444Z,58.97
2023-03-22T06:17:34.539Z,58.30
2023-03-22T06:20:36.924Z,59.30
2023-03-22T06:23:44.675Z,58.61
2023-03-22T06:26:47.668Z,59.15
2023-03-22T06:29:51.136Z,58.71
2023-03-22T06:33:00.732Z,59.13
2023-03-22T06:36:04.181Z,58.97
2023-03-22T06:39:13.526Z,59.35
2023-03-22T06:42:18.965Z,59.74
2023-03-22T06:45:26.631Z,60.55
2023-03-22T06:48:29.378Z,60.52
2023-03-22T06:51:37.012Z,59.88
2023-03-22T06:54:38.971Z,59.19
2023-03-22T06:57:41.143Z,58.61
2023-03-22T07:00:44.754Z,59.04
2023-03-22T07:03:48.769Z,58.95
2023-03-22T07:06:52.562Z,59.13
2023-03-22T07:09:57.164Z,58.84
2023-03-22T07:13:00.388Z,58.51
2023-03-22T07:16:03.415Z,59.20
2023-03-22T07:19:22.407Z,59.03
2023-03-22T07:22:24.986Z,58.65
2023-03-22T07:25:28.451Z,58.91
2023-03-22T07:28:41.594Z,58.88
2023-03-22T07:31:45.892Z,59.73
2023-03-22T07:35:01.423Z,59.07
2023-03-22T07:38:05.483Z,58.57
2023-03-22T07:41:10.228Z,58.28
2023-03-22T07:44:29.422Z,58.07
2023-03-22T07:47:54.146Z,58.64
2023-03-22T07:51:21.848Z,58.79
2023-03-22T07:54:33.301Z,59.02
2023-03-22T07:57:38.316Z,58.43
2023-03-22T08:00:41.145Z,58.91
2023-03-22T08:04:15.726Z,58.45
2023-03-22T08:07:38.211Z,58.38
2023-03-22T08:10:40.431Z,58.24
2023-03-22T08:14:10.425Z,58.24
2023-03-22T08:17:26.634Z,57.92
2023-03-22T08:20:29.424Z,57.94
2023-03-22T08:23:41.791Z,58.08
2023-03-22T08:27:04.268Z,58.73
2023-03-22T08:30:25.538Z,58.32
2023-03-22T08:33:28.791Z,58.52
2023-03-22T08:36:33.759Z,59.13
2023-03-22T08:39:39.432Z,59.21
2023-03-22T08:42:56.981Z,58.84
2023-03-22T08:46:03.322Z,58.92
2023-03-22T08:49:05.412Z,58.34
2023-03-22T08:52:12.003Z,58.55
2023-03-22T08:55:27.487Z,58.83
2023-03-22T08:58:48.140Z,58.60
2023-03-22T09:02:03.141Z,58.83
2023-03-22T09:05:06.009Z,59.48
2023-03-22T09:08:08.746Z,59.71
2023-03-22T09:11:17.973Z,59.27
2023-03-22T09:14:21.661Z,59.26
2023-03-22T09:17:24.604Z,59.48
2023-03-22T09:20:27.394Z,58.65
2023-03-22T09:23:32.193Z,58.51
2023-03-22T09:26:35.534Z,59.32
2023-03-22T09:29:37.872Z,59.91
2023-03-22T09:32:44.028Z,59.27
2023-03-22T09:35:48.691Z,59.24
2023-03-22T09:38:50.610Z,58.94
2023-03-22T09:41:56.665Z,59.20
2023-03-22T09:45:01.338Z,59.04
2023-03-22T09:48:11.851Z,58.49
2023-03-22T09:51:44.389Z,58.69
2023-03-22T09:54:47.442Z,58.51
2023-03-22T09:58:26.062Z,58.70
2023-03-22T10:01:47.393Z,58.56
2023-03-22T10:04:59.914Z,58.41
2023-03-22T10:08:25.363Z,58.13
2023-03-22T10:11:45.943Z,57.85
2023-03-22T10:14:56.615Z,58.39
2023-03-22T10:18:02.003Z,57.92
2023-03-22T10:21:06.923Z,59.03
2023-03-22T10:24:16.562Z,59.70
2023-03-22T10:27:20.998Z,59.50
2023-03-22T10:30:28.671Z,59.73
2023-03-22T10:33:40.041Z,59.78
2023-03-22T10:36:43.735Z,60.84
2023-03-22T10:39:50.849Z,60.11
2023-03-22T10:42:59.817Z,60.61
2023-03-22T10:46:09.108Z,60.83
2023-03-22T10:49:24.031Z,60.48
2023-03-22T10:52:33.642Z,59.88
2023-03-22T10:55:41.732Z,59.83
2023-03-22T10:58:44.676Z,60.02
2023-03-22T11:01:51.540Z,60.25
2023-03-22T11:04:57.030Z,59.37
2023-03-22T11:07:59.135Z,60.02
2023-03-22T11:11:07.715Z,60.98
2023-03-22T11:14:17.122Z,61.08
2023-03-22T11:17:23.724Z,59.64
2023-03-22T11:20:25.965Z,59.55
2023-03-22T11:23:33.347Z,59.10
2023-03-22T11:26:40.632Z,58.86
2023-03-22T11:29:50.485Z,58.40
2023-03-22T11:33:17.803Z,58.22
2023-03-22T11:36:20.317Z,58.09
2023-03-22T11:39:30.822Z,58.09
2023-03-22T11:42:34.773Z,57.72
2023-03-22T11:45:41.223Z,57.97
2023-03-22T11:48:46.706Z,57.57
2023-03-22T11:51:48.930Z,57.73
2023-03-22T11:54:52.494Z,57.56
2023-03-22T11:57:56.950Z,57.54
2023-03-22T12:01:02.074Z,58.72
2023-03-22T12:04:08.874Z,58.10
2023-03-22T12:07:17.211Z,57.95
2023-03-22T12:10:26.653Z,57.56
2023-03-22T12:13:50.998Z,57.48
2023-03-22T12:17:07.976Z,57.62
2023-03-22T12:20:57.158Z,57.72
2023-03-22T12:24:02.529Z,57.65
2023-03-22T12:27:12.664Z,57.55
2023-03-22T12:30:20.933Z,57.34
2023-03-22T12:33:35.177Z,57.14
2023-03-22T12:36:49.558Z,57.26
2023-03-22T12:40:19.723Z,57.43
2023-03-22T12:43:49.632Z,57.89
2023-03-22T12:47:01.135Z,57.56
2023-03-22T12:50:14.317Z,57.48
2023-03-22T12:53:19.560Z,57.34
2023-03-22T12:56:31.411Z,57.65
2023-03-22T12:59:37.033Z,58.25
2023-03-22T13:02:40.645Z,57.71
2023-03-22T13:05:45.438Z,57.74
2023-03-22T13:09:06.411Z,57.78
2023-03-22T13:12:17.621Z,57.58
2023-03-22T13:15:41.298Z,58.15
2023-03-22T13:18:45.364Z,58.20
2023-03-22T13:21:49.785Z,58.44
2023-03-22T13:25:08.452Z,57.75
2023-03-22T13:28:29.588Z,58.42
2023-03-22T13:31:43.547Z,58.16
2023-03-22T13:34:52.374Z,58.01
2023-03-22T13:38:16.276Z,57.88
2023-03-22T13:41:24.573Z,57.84
2023-03-22T13:44:36.671Z,57.82
2023-03-22T13:48:06.485Z,57.78
2023-03-22T13:51:18.062Z,57.57
2023-03-22T13:54:28.926Z,57.89
2023-03-22T13:57:59.116Z,58.23
2023-03-22T14:01:01.613Z,57.89
2023-03-22T14:04:13.645Z,57.92
2023-03-22T14:07:44.424Z,57.90
2023-03-22T14:10:52.619Z,57.96
2023-03-22T14:14:00.548Z,58.58
2023-03-22T14:17:13.373Z,59.08
2023-03-22T14:20:24.394Z,58.61
